Time;durP1;ratioP1;P1;durP2;ratioP2;P2;SDS_P1;SDS_P2;PMS_P1;PMS_P2;Temp;Humidity;BMP_temperature;BMP_pressure;BME280_temperature;BME280_humidity;BME280_pressure;Samples;Min_cycle;Max_cycle;Signal;HPM_P1;HPM_P2
2021/12/27 00:00:57;;;;;;;187.93;100.07;;;;;;;1.20;nan;-23849.16;5092628;28;20170;-67
2021/12/27 00:03:22;;;;;;;192.20;96.80;;;;;;;1.94;nan;-23869.88;5092740;28;20540;-68
2021/12/27 00:05:48;;;;;;;188.87;100.20;;;;;;;2.00;nan;-23871.75;5093223;28;20185;-68
2021/12/27 00:08:13;;;;;;;178.27;93.87;;;;;;;2.03;nan;-23872.59;5092862;28;20204;-68
2021/12/27 00:10:39;;;;;;;189.73;100.63;;;;;;;2.17;nan;-23876.47;5092949;28;20252;-68
2021/12/27 00:13:07;;;;;;;200.10;102.37;;;;;;;1.78;nan;-23865.47;5093056;28;20184;-68
2021/12/27 00:15:33;;;;;;;190.07;100.37;;;;;;;1.98;nan;-23871.03;5092530;28;20161;-68
2021/12/27 00:17:58;;;;;;;194.73;100.53;;;;;;;2.33;nan;-23881.03;5092697;28;20161;-69
2021/12/27 00:20:24;;;;;;;198.57;98.37;;;;;;;2.04;nan;-23872.75;5092538;28;20703;-68
2021/12/27 00:22:51;;;;;;;191.27;99.27;;;;;;;2.28;nan;-23879.59;5092918;28;20170;-68
2021/12/27 00:25:17;;;;;;;189.80;100.77;;;;;;;1.98;nan;-23871.03;5092443;28;20165;-68
2021/12/27 00:27:43;;;;;;;189.57;99.47;;;;;;;2.38;nan;-23882.31;5092324;28;20181;-68
2021/12/27 00:30:10;;;;;;;187.40;99.23;;;;;;;2.06;nan;-23873.47;5092562;28;20181;-68
2021/12/27 00:32:37;;;;;;;189.90;100.83;;;;;;;1.95;nan;-23870.31;5092163;28;20256;-68
2021/12/27 00:35:07;;;;;;;205.17;102.83;;;;;;;1.78;nan;-23865.47;5092239;28;20162;-68
2021/12/27 00:37:34;;;;;;;198.43;105.13;;;;;;;1.79;nan;-23865.75;5092298;28;20217;-68
2021/12/27 00:39:59;;;;;;;191.70;102.33;;;;;;;2.10;nan;-23874.47;5092374;28;20162;-68
2021/12/27 00:42:25;;;;;;;188.00;99.73;;;;;;;2.19;nan;-23877.16;5092511;28;20644;-68
2021/12/27 00:44:50;;;;;;;188.97;100.67;;;;;;;2.07;nan;-23873.75;5092036;28;20648;-68
2021/12/27 00:47:16;;;;;;;201.70;101.90;;;;;;;1.64;nan;-23861.47;5091765;28;20687;-68
2021/12/27 00:49:41;;;;;;;186.67;98.20;;;;;;;1.73;nan;-23864.03;5092377;28;20213;-68
2021/12/27 00:52:07;;;;;;;188.40;99.87;;;;;;;2.18;nan;-23876.75;5091585;28;20176;-68
2021/12/27 00:54:33;;;;;;;187.63;97.37;;;;;;;2.13;nan;-23875.31;5092024;28;20249;-68
2021/12/27 00:56:58;;;;;;;197.63;105.10;;;;;;;1.73;nan;-23864.03;5073842;28;20359;-69
2021/12/27 00:59:24;;;;;;;189.27;98.57;;;;;;;1.74;nan;-23864.31;5090997;28;20239;-68
2021/12/27 01:01:49;;;;;;;190.87;103.20;;;;;;;1.70;nan;-23863.16;5091140;28;20181;-68
2021/12/27 01:04:15;;;;;;;188.13;99.80;;;;;;;1.83;nan;-23866.88;5092040;28;20189;-68
2021/12/27 01:06:40;;;;;;;190.00;100.23;;;;;;;1.34;nan;-23853.03;5091501;28;20212;-68
2021/12/27 01:09:07;;;;;;;203.70;100.90;;;;;;;1.72;nan;-23863.75;5073364;28;20180;-68
2021/12/27 01:16:30;;;;;;;175.63;93.83;;;;;;;1.94;nan;-23870.03;5091552;28;20299;-68
2021/12/27 01:18:56;;;;;;;181.63;96.80;;;;;;;1.91;nan;-23869.03;5091737;28;20273;-68
2021/12/27 01:21:23;;;;;;;176.27;92.60;;;;;;;2.03;nan;-23872.47;5091589;28;20177;-68
2021/12/27 01:23:50;;;;;;;182.90;95.47;;;;;;;1.93;nan;-23869.59;5091526;28;20604;-68
2021/12/27 01:26:16;;;;;;;175.60;93.87;;;;;;;2.06;nan;-23873.47;5091495;28;20205;-68
2021/12/27 01:28:42;;;;;;;185.50;94.80;;;;;;;1.97;nan;-23870.75;5091374;28;20170;-68
2021/12/27 01:31:08;;;;;;;186.50;95.83;;;;;;;2.01;nan;-23872.03;5091456;28;20219;-68
2021/12/27 01:33:34;;;;;;;183.90;96.87;;;;;;;1.42;nan;-23855.16;5091577;28;20168;-68
2021/12/27 01:36:00;;;;;;;201.30;103.33;;;;;;;1.83;nan;-23866.88;5092772;28;20192;-68
2021/12/27 01:38:26;;;;;;;184.13;97.20;;;;;;;1.66;nan;-23862.03;5095711;28;20185;-68
2021/12/27 01:40:54;;;;;;;196.40;102.30;;;;;;;1.53;nan;-23858.44;5095760;28;20236;-68
2021/12/27 01:43:25;;;;;;;196.13;98.60;;;;;;;1.88;nan;-23868.31;5095609;28;20184;-68
2021/12/27 01:45:52;;;;;;;174.67;95.07;;;;;;;1.78;nan;-23865.59;5095389;28;20546;-67
2021/12/27 01:48:23;;;;;;;187.10;96.67;;;;;;;1.63;nan;-23861.31;5095362;28;20184;-68
2021/12/27 01:50:50;;;;;;;182.17;94.10;;;;;;;1.69;nan;-23862.88;5095056;28;20285;-67
2021/12/27 01:53:17;;;;;;;189.50;96.27;;;;;;;1.26;nan;-23850.88;5095221;28;20186;-67
2021/12/27 01:55:43;;;;;;;179.77;91.37;;;;;;;1.33;nan;-23852.88;5095492;28;20182;-67
2021/12/27 01:58:09;;;;;;;167.77;87.90;;;;;;;1.00;nan;-23843.31;5095297;28;20169;-68
2021/12/27 02:00:39;;;;;;;181.57;91.87;;;;;;;1.67;nan;-23862.47;5094557;28;20202;-67
2021/12/27 02:03:05;;;;;;;177.57;92.53;;;;;;;1.24;nan;-23850.16;5095154;28;20214;-68
2021/12/27 02:05:31;;;;;;;179.90;94.90;;;;;;;1.45;nan;-23856.16;5095164;28;20695;-67
2021/12/27 02:07:57;;;;;;;165.67;87.43;;;;;;;1.74;nan;-23864.47;5095349;28;20242;-67
2021/12/27 02:10:22;;;;;;;169.03;86.20;;;;;;;1.33;nan;-23852.75;5095175;28;20277;-67
2021/12/27 02:12:48;;;;;;;164.80;85.63;;;;;;;1.66;nan;-23862.03;5094741;28;20236;-68
2021/12/27 02:15:14;;;;;;;166.80;88.70;;;;;;;1.68;nan;-23862.75;5095327;28;20659;-70
2021/12/27 02:17:42;;;;;;;172.13;89.93;;;;;;;1.42;nan;-23855.31;5095407;28;20208;-67
2021/12/27 02:20:19;;;;;;;169.23;90.27;;;;;;;1.34;nan;-23853.16;5095102;28;20184;-69
2021/12/27 02:22:46;;;;;;;173.67;89.37;;;;;;;1.55;nan;-23858.88;5095382;28;20176;-69
2021/12/27 02:25:12;;;;;;;176.30;88.27;;;;;;;1.80;nan;-23865.88;5094877;28;20640;-70
2021/12/27 02:27:39;;;;;;;167.20;89.60;;;;;;;1.64;nan;-23861.59;5095064;28;20178;-69
2021/12/27 02:30:09;;;;;;;174.20;88.40;;;;;;;1.56;nan;-23859.31;5095412;28;20264;-70
2021/12/27 02:32:48;;;;;;;170.37;86.33;;;;;;;1.41;nan;-23855.03;5076632;28;20188;-70
2021/12/27 02:35:23;;;;;;;165.73;85.93;;;;;;;1.76;nan;-23864.88;5094956;28;20179;-69
2021/12/27 02:37:49;;;;;;;162.13;84.73;;;;;;;1.38;nan;-23854.16;5094636;28;20299;-70
2021/12/27 02:40:15;;;;;;;165.03;86.37;;;;;;;1.61;nan;-23860.59;5095208;28;20703;-70
2021/12/27 02:43:04;;;;;;;164.93;85.13;;;;;;;1.55;nan;-23858.88;5094530;28;20500;-69
2021/12/27 02:45:33;;;;;;;160.60;83.30;;;;;;;1.28;nan;-23851.44;5094462;28;20679;-69
2021/12/27 02:47:59;;;;;;;179.37;89.13;;;;;;;0.95;nan;-23842.00;5094450;28;20177;-70
2021/12/27 02:50:27;;;;;;;164.00;82.87;;;;;;;1.22;nan;-23849.72;5094239;28;20290;-70
2021/12/27 02:52:53;;;;;;;159.53;80.87;;;;;;;0.83;nan;-23838.59;5094681;28;20177;-68
2021/12/27 02:55:19;;;;;;;122.77;63.73;;;;;;;0.92;nan;-23841.00;5094629;28;20346;-70
2021/12/27 02:57:46;;;;;;;118.63;60.07;;;;;;;0.99;nan;-23843.00;5094610;28;20761;-70
2021/12/27 03:00:20;;;;;;;126.13;63.07;;;;;;;1.00;nan;-23843.44;5094380;28;20190;-70
2021/12/27 03:02:48;;;;;;;112.57;59.23;;;;;;;0.93;nan;-23841.44;5094134;28;20516;-70
2021/12/27 03:05:16;;;;;;;126.27;62.70;;;;;;;1.06;nan;-23845.16;5094259;28;20209;-70
2021/12/27 03:07:43;;;;;;;151.97;78.47;;;;;;;1.58;nan;-23859.75;5094299;28;20169;-68
2021/12/27 03:10:10;;;;;;;144.27;76.30;;;;;;;1.65;nan;-23861.75;5094333;28;20587;-69
2021/12/27 03:12:38;;;;;;;147.40;78.40;;;;;;;1.08;nan;-23845.59;5094618;28;20249;-70
2021/12/27 03:15:08;;;;;;;144.60;76.07;;;;;;;1.37;nan;-23853.88;5093906;28;20210;-68
2021/12/27 03:17:36;;;;;;;147.00;74.83;;;;;;;1.44;nan;-23855.88;5094626;28;20238;-69
2021/12/27 03:20:03;;;;;;;146.63;76.47;;;;;;;0.53;nan;-23830.13;5093967;28;20167;-68
2021/12/27 03:22:29;;;;;;;147.90;79.43;;;;;;;1.34;nan;-23853.16;5094376;28;20634;-70
2021/12/27 03:24:54;;;;;;;147.30;78.50;;;;;;;1.68;nan;-23862.59;5094241;28;20172;-69
2021/12/27 03:27:20;;;;;;;149.60;75.77;;;;;;;1.50;nan;-23857.59;5094022;28;20176;-68
2021/12/27 03:29:45;;;;;;;153.07;79.70;;;;;;;1.51;nan;-23857.88;5093839;28;20177;-70
2021/12/27 03:32:11;;;;;;;155.73;78.03;;;;;;;1.36;nan;-23853.44;5094168;28;20172;-68
2021/12/27 03:34:41;;;;;;;156.40;80.70;;;;;;;1.46;nan;-23856.47;5093805;28;20172;-69
2021/12/27 03:37:09;;;;;;;152.70;78.23;;;;;;;1.81;nan;-23866.16;5093588;28;20207;-70
2021/12/27 03:39:34;;;;;;;158.17;80.33;;;;;;;1.30;nan;-23852.03;5093621;28;20281;-70
2021/12/27 03:42:00;;;;;;;154.80;78.20;;;;;;;1.43;nan;-23855.59;5093305;28;20267;-70
2021/12/27 03:44:25;;;;;;;154.50;81.80;;;;;;;1.69;nan;-23862.88;5093265;28;20161;-69
2021/12/27 03:46:51;;;;;;;155.67;81.77;;;;;;;1.67;nan;-23862.47;5093857;28;20258;-69
2021/12/27 03:49:16;;;;;;;160.83;84.27;;;;;;;1.59;nan;-23860.16;5093587;28;20628;-69
2021/12/27 03:51:43;;;;;;;156.87;83.83;;;;;;;1.16;nan;-23847.88;5092788;28;20710;-69
2021/12/27 03:54:09;;;;;;;158.07;84.17;;;;;;;1.33;nan;-23852.75;5093291;28;20172;-69
2021/12/27 03:56:35;;;;;;;161.03;86.70;;;;;;;1.50;nan;-23857.47;5093271;28;20189;-68
2021/12/27 03:59:20;;;;;;;158.97;85.13;;;;;;;1.10;nan;-23846.31;5092428;28;20327;-69
2021/12/27 04:01:46;;;;;;;169.50;87.63;;;;;;;1.53;nan;-23858.31;5090820;28;20550;-69
2021/12/27 04:04:11;;;;;;;172.87;91.23;;;;;;;1.16;nan;-23848.03;5091790;28;20256;-69
2021/12/27 04:06:37;;;;;;;163.70;85.67;;;;;;;1.74;nan;-23864.47;5092005;28;20561;-69
2021/12/27 04:09:02;;;;;;;163.27;87.47;;;;;;;1.53;nan;-23858.44;5092650;28;20749;-69
2021/12/27 04:11:28;;;;;;;170.20;89.83;;;;;;;1.85;nan;-23867.47;5093125;28;20176;-69
2021/12/27 04:13:55;;;;;;;162.67;86.37;;;;;;;1.91;nan;-23869.16;5074961;28;20307;-68
2021/12/27 04:16:21;;;;;;;159.20;84.80;;;;;;;1.91;nan;-23869.03;5093223;28;20246;-68
2021/12/27 04:18:47;;;;;;;157.67;85.83;;;;;;;2.06;nan;-23873.31;5093469;28;20267;-69
2021/12/27 04:21:12;;;;;;;152.27;81.70;;;;;;;1.84;nan;-23867.19;5092536;28;20181;-69
2021/12/27 04:23:38;;;;;;;150.53;82.70;;;;;;;1.92;nan;-23869.31;5093264;28;20174;-68
2021/12/27 04:26:03;;;;;;;164.47;81.77;;;;;;;2.16;nan;-23876.16;5092463;28;20651;-70
2021/12/27 04:28:29;;;;;;;157.67;80.97;;;;;;;1.92;nan;-23869.31;5092647;28;20196;-69
2021/12/27 04:30:54;;;;;;;151.97;81.20;;;;;;;1.84;nan;-23867.19;5092583;28;20537;-69
2021/12/27 04:33:20;;;;;;;155.63;82.53;;;;;;;2.25;nan;-23878.75;5092595;28;20177;-69
2021/12/27 04:35:46;;;;;;;153.20;81.67;;;;;;;2.06;nan;-23873.31;5092791;28;20636;-69
2021/12/27 04:38:11;;;;;;;147.07;80.27;;;;;;;2.52;nan;-23886.31;5090484;28;20185;-69
2021/12/27 04:40:40;;;;;;;151.37;82.10;;;;;;;2.56;nan;-23887.59;5089921;28;20192;-69
2021/12/27 04:43:10;;;;;;;142.70;80.00;;;;;;;2.55;nan;-23887.31;5092333;28;20580;-69
2021/12/27 04:45:37;;;;;;;141.63;76.97;;;;;;;2.55;nan;-23887.31;5092546;28;20177;-69
2021/12/27 04:48:03;;;;;;;142.53;77.53;;;;;;;2.18;nan;-23876.88;5092655;28;20173;-69
2021/12/27 04:50:29;;;;;;;142.00;78.00;;;;;;;2.56;nan;-23887.59;5092247;28;20220;-69
2021/12/27 04:52:54;;;;;;;143.17;76.30;;;;;;;2.11;nan;-23874.88;5092258;28;20213;-69
2021/12/27 04:55:23;;;;;;;140.43;77.27;;;;;;;2.53;nan;-23886.59;5092307;28;20571;-69
2021/12/27 04:57:48;;;;;;;139.07;73.03;;;;;;;2.20;nan;-23877.31;5092206;28;20197;-69
2021/12/27 05:00:14;;;;;;;130.20;72.30;;;;;;;2.63;nan;-23889.44;5092215;28;20223;-69
2021/12/27 05:02:40;;;;;;;142.77;76.27;;;;;;;2.39;nan;-23882.75;5091348;28;20173;-69
2021/12/27 05:05:06;;;;;;;143.53;75.93;;;;;;;2.64;nan;-23889.88;5092291;28;20181;-68
2021/12/27 05:07:32;;;;;;;136.57;74.33;;;;;;;2.14;nan;-23875.75;5089080;28;20211;-68
2021/12/27 05:09:57;;;;;;;136.93;74.73;;;;;;;2.39;nan;-23882.59;5090175;28;20644;-70
2021/12/27 05:12:23;;;;;;;136.07;74.30;;;;;;;2.28;nan;-23879.59;5091007;28;20231;-69
2021/12/27 05:14:48;;;;;;;136.20;73.17;;;;;;;2.74;nan;-23892.59;5091043;28;20551;-68
2021/12/27 05:17:14;;;;;;;141.03;76.10;;;;;;;2.76;nan;-23893.00;5091146;28;20217;-69
2021/12/27 05:19:39;;;;;;;139.17;75.40;;;;;;;2.22;nan;-23878.03;5091303;28;20181;-69
2021/12/27 05:22:05;;;;;;;137.43;75.87;;;;;;;2.25;nan;-23878.75;5091671;28;20543;-68
2021/12/27 05:24:30;;;;;;;150.07;78.93;;;;;;;1.90;nan;-23868.75;5091024;28;20180;-70
2021/12/27 05:26:56;;;;;;;143.50;79.30;;;;;;;1.66;nan;-23862.19;5091688;28;20192;-70
2021/12/27 05:29:22;;;;;;;155.03;81.53;;;;;;;2.07;nan;-23873.59;5091007;28;20181;-69
2021/12/27 05:31:47;;;;;;;151.70;81.77;;;;;;;1.64;nan;-23861.59;5075520;28;20692;-69
2021/12/27 05:34:14;;;;;;;161.77;83.30;;;;;;;1.89;nan;-23868.47;5091046;28;20220;-69
2021/12/27 05:36:42;;;;;;;148.70;80.80;;;;;;;2.00;nan;-23871.59;5090742;28;20284;-68
2021/12/27 05:39:12;;;;;;;152.63;82.07;;;;;;;1.93;nan;-23869.59;5090878;28;20537;-68
2021/12/27 05:41:37;;;;;;;158.67;83.03;;;;;;;1.78;nan;-23865.59;5089689;28;20189;-68
2021/12/27 05:44:03;;;;;;;160.57;84.00;;;;;;;2.17;nan;-23876.59;5089104;28;20663;-69
2021/12/27 05:46:29;;;;;;;141.10;77.67;;;;;;;2.05;nan;-23873.16;5091853;28;20276;-69
2021/12/27 05:48:54;;;;;;;146.20;80.83;;;;;;;2.21;nan;-23877.59;5090932;28;20687;-69
2021/12/27 05:51:19;;;;;;;149.60;79.27;;;;;;;2.49;nan;-23885.59;5090330;28;20297;-69
2021/12/27 05:53:45;;;;;;;152.07;81.33;;;;;;;2.43;nan;-23883.88;5075225;28;20188;-69
2021/12/27 05:56:10;;;;;;;144.30;80.13;;;;;;;2.31;nan;-23880.47;5090815;28;20668;-69
2021/12/27 05:58:36;;;;;;;154.00;84.57;;;;;;;2.27;nan;-23879.16;5091045;28;20189;-69
2021/12/27 06:01:02;;;;;;;145.40;80.63;;;;;;;2.44;nan;-23884.03;5090365;28;20207;-68
2021/12/27 06:03:27;;;;;;;139.97;77.50;;;;;;;2.69;nan;-23891.16;5090291;28;20185;-69
2021/12/27 06:05:53;;;;;;;139.60;76.60;;;;;;;2.39;nan;-23882.75;5091358;28;20233;-70
2021/12/27 06:08:18;;;;;;;143.17;77.47;;;;;;;2.73;nan;-23892.16;5090906;28;20648;-69
2021/12/27 06:10:43;;;;;;;129.30;70.83;;;;;;;2.61;nan;-23888.88;5090145;28;20239;-70
2021/12/27 06:13:09;;;;;;;133.83;73.57;;;;;;;2.19;nan;-23877.03;5090439;28;20633;-70
2021/12/27 06:15:34;;;;;;;129.43;70.33;;;;;;;2.63;nan;-23889.59;5089616;28;20641;-70
2021/12/27 06:18:00;;;;;;;128.10;68.87;;;;;;;2.50;nan;-23885.88;5090396;28;20618;-70
2021/12/27 06:20:25;;;;;;;125.37;67.67;;;;;;;2.97;nan;-23899.00;5090188;28;20189;-70
2021/12/27 06:22:54;;;;;;;130.63;69.27;;;;;;;2.97;nan;-23899.00;5093382;28;20704;-69
2021/12/27 06:25:20;;;;;;;125.63;66.77;;;;;;;3.07;nan;-23901.84;5094189;28;20567;-69
2021/12/27 06:27:45;;;;;;;125.73;66.67;;;;;;;2.86;nan;-23896.00;5094142;28;20671;-71
2021/12/27 06:30:13;;;;;;;125.93;68.53;;;;;;;3.04;nan;-23901.00;5094448;28;20549;-69
2021/12/27 06:32:39;;;;;;;122.83;66.27;;;;;;;3.07;nan;-23901.84;5094215;28;20273;-68
2021/12/27 06:35:06;;;;;;;125.47;69.30;;;;;;;3.25;nan;-23907.00;5094173;28;20231;-69
2021/12/27 06:37:32;;;;;;;116.23;64.97;;;;;;;3.32;nan;-23908.84;5093616;28;20552;-69
2021/12/27 06:39:58;;;;;;;125.87;71.83;;;;;;;3.11;nan;-23903.00;5094403;28;20177;-71
2021/12/27 06:42:23;;;;;;;131.10;73.87;;;;;;;3.46;nan;-23912.97;5094534;28;20193;-69
2021/12/27 06:44:49;;;;;;;126.30;69.43;;;;;;;3.65;nan;-23918.13;5093994;28;20246;-69
2021/12/27 06:47:14;;;;;;;119.13;67.60;;;;;;;3.64;nan;-23917.97;5093624;28;20181;-69
2021/12/27 06:49:41;;;;;;;121.37;67.87;;;;;;;3.42;nan;-23911.69;5093161;28;20688;-69
2021/12/27 06:52:07;;;;;;;115.43;63.77;;;;;;;3.80;nan;-23922.38;5093727;28;20189;-70
2021/12/27 06:54:32;;;;;;;117.03;66.60;;;;;;;4.02;nan;-23928.50;5093809;28;20197;-69
2021/12/27 06:57:00;;;;;;;117.10;68.60;;;;;;;4.30;nan;-23936.63;5093693;28;20204;-70
2021/12/27 06:59:27;;;;;;;134.67;75.87;;;;;;;4.24;nan;-23934.78;5085763;28;20184;-70
2021/12/27 07:01:52;;;;;;;129.53;73.90;;;;;;;4.16;nan;-23932.63;5092239;28;20687;-69
2021/12/27 07:04:18;;;;;;;128.60;72.30;;;;;;;4.35;nan;-23937.91;5093650;28;20268;-69
2021/12/27 07:06:43;;;;;;;133.10;69.73;;;;;;;4.28;nan;-23936.06;5093840;28;20608;-69
2021/12/27 07:09:09;;;;;;;123.30;70.60;;;;;;;4.52;nan;-23942.59;5093449;28;20197;-69
2021/12/27 07:11:35;;;;;;;125.27;70.80;;;;;;;4.70;nan;-23947.88;5093040;28;20177;-70
2021/12/27 07:14:01;;;;;;;123.33;69.23;;;;;;;4.50;nan;-23942.19;5093106;28;20181;-69
2021/12/27 07:16:27;;;;;;;123.57;66.00;;;;;;;5.01;nan;-23956.41;5092342;28;20242;-68
2021/12/27 07:18:53;;;;;;;118.03;65.00;;;;;;;5.07;nan;-23958.25;5079443;28;20188;-70
2021/12/27 07:21:19;;;;;;;115.60;64.70;;;;;;;5.06;nan;-23957.97;5087815;28;20241;-68
2021/12/27 07:23:44;;;;;;;115.10;60.53;;;;;;;5.19;nan;-23961.53;5093429;28;20185;-70
2021/12/27 07:26:10;;;;;;;110.93;62.87;;;;;;;5.00;nan;-23956.25;5092546;28;20192;-68
2021/12/27 07:28:36;;;;;;;108.23;60.90;;;;;;;5.40;nan;-23967.50;5091856;28;20188;-68
2021/12/27 07:31:02;;;;;;;112.17;61.43;;;;;;;4.83;nan;-23951.44;5092351;28;20837;-69
2021/12/27 07:33:27;;;;;;;101.90;58.60;;;;;;;5.41;nan;-23967.66;5091250;28;20191;-68
2021/12/27 07:35:52;;;;;;;102.17;59.33;;;;;;;5.13;nan;-23959.97;5094172;28;20180;-69
2021/12/27 07:38:18;;;;;;;105.57;59.03;;;;;;;5.54;nan;-23971.34;5092477;28;20250;-68
2021/12/27 07:40:43;;;;;;;106.40;59.40;;;;;;;5.18;nan;-23961.38;5087532;28;20518;-69
2021/12/27 07:43:09;;;;;;;110.67;61.73;;;;;;;5.22;nan;-23962.38;5091953;28;20258;-69
2021/12/27 07:45:34;;;;;;;107.10;59.73;;;;;;;5.49;nan;-23970.06;5092174;28;20185;-68
2021/12/27 07:48:00;;;;;;;105.80;59.27;;;;;;;5.23;nan;-23962.81;5092157;28;20177;-69
2021/12/27 07:50:26;;;;;;;110.87;61.30;;;;;;;5.45;nan;-23968.78;5091844;28;20240;-70
2021/12/27 07:52:52;;;;;;;111.23;62.63;;;;;;;5.05;nan;-23957.69;5092202;28;20276;-69
2021/12/27 07:55:17;;;;;;;112.33;64.53;;;;;;;4.44;nan;-23940.63;5092090;28;20188;-69
2021/12/27 07:57:43;;;;;;;111.60;63.60;;;;;;;5.18;nan;-23961.25;5092034;28;20208;-69
2021/12/27 08:00:09;;;;;;;118.37;65.83;;;;;;;4.97;nan;-23955.41;5091355;28;20181;-68
2021/12/27 08:02:36;;;;;;;120.10;66.13;;;;;;;4.97;nan;-23955.41;5092625;28;20170;-67
2021/12/27 08:05:02;;;;;;;110.47;63.83;;;;;;;5.13;nan;-23959.81;5092690;28;20273;-69
2021/12/27 08:07:27;;;;;;;116.27;68.67;;;;;;;5.02;nan;-23956.84;5092966;28;20552;-69
2021/12/27 08:09:53;;;;;;;109.80;61.30;;;;;;;4.85;nan;-23952.00;5092389;28;20222;-69
2021/12/27 08:12:18;;;;;;;96.23;55.67;;;;;;;5.11;nan;-23959.41;5091757;28;20219;-69
2021/12/27 08:14:44;;;;;;;99.00;54.30;;;;;;;5.48;nan;-23969.78;5089788;28;20261;-69
2021/12/27 08:17:09;;;;;;;94.43;52.70;;;;;;;5.48;nan;-23969.78;5090544;28;20205;-69
2021/12/27 08:19:35;;;;;;;91.50;52.87;;;;;;;5.53;nan;-23971.19;5088189;28;20533;-69
2021/12/27 08:22:01;;;;;;;85.57;50.30;;;;;;;5.71;nan;-23976.16;5090979;28;20603;-69
2021/12/27 08:24:26;;;;;;;89.70;52.03;;;;;;;5.82;nan;-23979.31;5090858;28;20178;-68
2021/12/27 08:26:52;;;;;;;88.87;51.63;;;;;;;5.69;nan;-23975.59;5091220;28;20177;-68
2021/12/27 08:29:17;;;;;;;86.47;51.13;;;;;;;6.04;nan;-23985.56;5091156;28;20557;-69
2021/12/27 08:31:43;;;;;;;88.90;53.13;;;;;;;5.77;nan;-23977.88;5092975;28;20193;-69
2021/12/27 08:34:08;;;;;;;85.77;50.83;;;;;;;6.07;nan;-23986.25;5092411;28;20256;-68
2021/12/27 08:36:34;;;;;;;86.67;52.13;;;;;;;6.34;nan;-23993.78;5087940;28;20193;-68
2021/12/27 08:39:00;;;;;;;92.70;53.60;;;;;;;6.34;nan;-23993.94;5089953;28;20211;-68
2021/12/27 08:41:28;;;;;;;91.77;53.97;;;;;;;6.72;nan;-24004.56;5086964;28;20636;-68
2021/12/27 08:43:56;;;;;;;90.60;52.53;;;;;;;6.97;nan;-24011.53;5077919;28;20534;-69
2021/12/27 08:46:21;;;;;;;91.77;52.30;;;;;;;6.91;nan;-24009.97;5090882;28;20216;-69
2021/12/27 08:48:47;;;;;;;94.70;55.07;;;;;;;6.28;nan;-23992.09;5086513;28;20639;-69
2021/12/27 08:51:12;;;;;;;100.70;60.23;;;;;;;6.70;nan;-24003.88;5089965;28;20629;-69
2021/12/27 08:53:38;;;;;;;96.13;59.17;;;;;;;6.07;nan;-23986.41;5089658;28;20213;-69
2021/12/27 08:56:04;;;;;;;89.33;56.23;;;;;;;6.07;nan;-23986.41;5090160;28;20201;-69
2021/12/27 08:58:29;;;;;;;103.77;62.80;;;;;;;6.55;nan;-23999.75;5089897;28;20701;-69
2021/12/27 09:00:55;;;;;;;88.70;55.27;;;;;;;6.59;nan;-24000.88;5089964;28;20251;-68
2021/12/27 09:03:20;;;;;;;88.90;53.77;;;;;;;6.40;nan;-23995.63;5089649;28;20177;-70
2021/12/27 09:05:46;;;;;;;84.83;50.87;;;;;;;5.79;nan;-23978.59;5089484;28;20224;-69
2021/12/27 09:08:11;;;;;;;87.03;51.17;;;;;;;6.27;nan;-23991.94;5090599;28;20189;-69
2021/12/27 09:10:37;;;;;;;87.70;52.53;;;;;;;6.10;nan;-23987.25;5091949;28;20225;-70
2021/12/27 09:13:02;;;;;;;82.83;50.67;;;;;;;5.94;nan;-23982.56;5089462;28;20205;-70
2021/12/27 09:15:29;;;;;;;91.00;53.80;;;;;;;6.39;nan;-23995.22;5090797;28;20270;-70
2021/12/27 09:17:55;;;;;;;92.83;55.03;;;;;;;6.22;nan;-23990.66;5086482;28;20241;-70
2021/12/27 09:20:21;;;;;;;94.37;54.80;;;;;;;6.56;nan;-24000.19;5091140;28;20236;-70
2021/12/27 09:22:47;;;;;;;85.03;52.43;;;;;;;6.23;nan;-23990.81;5092035;28;20668;-69
2021/12/27 09:25:12;;;;;;;81.60;51.33;;;;;;;6.21;nan;-23990.25;5092203;28;20201;-70
2021/12/27 09:27:38;;;;;;;83.70;50.40;;;;;;;6.75;nan;-24005.44;5092035;28;20255;-69
2021/12/27 09:30:05;;;;;;;86.37;50.73;;;;;;;6.02;nan;-23984.97;5091322;28;20188;-70
2021/12/27 09:32:30;;;;;;;84.50;48.17;;;;;;;6.43;nan;-23996.34;5092061;28;20188;-69
2021/12/27 09:34:56;;;;;;;76.07;44.37;;;;;;;6.23;nan;-23990.81;5089853;28;20182;-70
2021/12/27 09:37:22;;;;;;;76.27;45.77;;;;;;;6.33;nan;-23993.66;5091566;28;20565;-69
2021/12/27 09:39:53;;;;;;;75.30;44.83;;;;;;;6.26;nan;-23991.66;5073416;28;20185;-70
2021/12/27 09:42:26;;;;;;;74.33;45.13;;;;;;;6.32;nan;-23993.38;5091760;28;20158;-70
2021/12/27 09:44:53;;;;;;;71.87;42.27;;;;;;;6.30;nan;-23992.66;5091499;28;20181;-68
2021/12/27 09:47:19;;;;;;;65.43;40.87;;;;;;;6.15;nan;-23988.69;5092205;28;20200;-70
2021/12/27 09:49:46;;;;;;;72.27;42.07;;;;;;;6.71;nan;-24004.28;5091494;28;20249;-70
2021/12/27 09:52:12;;;;;;;62.33;39.07;;;;;;;6.09;nan;-23986.97;5089930;28;20656;-69
2021/12/27 09:54:38;;;;;;;65.47;39.30;;;;;;;6.48;nan;-23997.91;5091512;28;20264;-69
2021/12/27 09:57:04;;;;;;;71.20;39.17;;;;;;;6.73;nan;-24004.72;5093125;28;20683;-69
2021/12/27 09:59:29;;;;;;;62.03;38.30;;;;;;;6.43;nan;-23996.50;5095282;28;20226;-69
2021/12/27 10:01:55;;;;;;;65.03;37.53;;;;;;;6.58;nan;-24000.59;5095425;28;20268;-69
2021/12/27 10:04:20;;;;;;;62.80;37.10;;;;;;;6.68;nan;-24003.44;5095692;28;20174;-70
2021/12/27 10:06:47;;;;;;;59.73;37.27;;;;;;;6.49;nan;-23998.19;5095389;28;20181;-69
2021/12/27 10:09:14;;;;;;;60.40;37.93;;;;;;;6.39;nan;-23995.22;5095809;28;20182;-70
2021/12/27 10:11:42;;;;;;;58.87;37.33;;;;;;;6.66;nan;-24003.00;5095615;28;20163;-70
2021/12/27 10:14:17;;;;;;;60.73;37.20;;;;;;;6.68;nan;-24003.31;5096314;28;20209;-70
2021/12/27 10:16:49;;;;;;;64.27;37.17;;;;;;;6.44;nan;-23996.63;5095853;28;20203;-69
2021/12/27 10:19:16;;;;;;;63.77;37.13;;;;;;;6.27;nan;-23991.94;5095947;28;20177;-70
2021/12/27 10:21:44;;;;;;;61.73;38.27;;;;;;;6.59;nan;-24001.03;5077335;28;20226;-71
2021/12/27 10:24:14;;;;;;;60.67;37.57;;;;;;;6.53;nan;-23999.31;5095196;28;20168;-70
2021/12/27 10:26:40;;;;;;;62.67;37.53;;;;;;;6.32;nan;-23993.22;5095721;28;20640;-70
2021/12/27 10:29:11;;;;;;;62.93;38.60;;;;;;;6.53;nan;-23999.31;5095604;28;20169;-69
2021/12/27 10:32:04;;;;;;;62.90;38.17;;;;;;;6.71;nan;-24004.28;5095875;28;20267;-70
2021/12/27 10:34:37;;;;;;;60.57;37.83;;;;;;;6.67;nan;-24003.16;5095009;28;20196;-70
2021/12/27 10:37:06;;;;;;;59.53;37.07;;;;;;;6.50;nan;-23998.47;5094864;28;20221;-70
2021/12/27 10:39:43;;;;;;;61.40;38.20;;;;;;;6.50;nan;-23998.34;5094931;28;20168;-70
2021/12/27 10:42:11;;;;;;;62.57;38.30;;;;;;;6.15;nan;-23988.53;5095335;28;20233;-69
2021/12/27 10:44:37;;;;;;;62.10;37.90;;;;;;;6.69;nan;-24003.72;5093543;28;20186;-69
2021/12/27 10:47:04;;;;;;;66.37;40.43;;;;;;;6.73;nan;-24004.88;5094910;28;20589;-69
2021/12/27 10:49:48;;;;;;;68.07;41.90;;;;;;;6.36;nan;-23994.34;5093589;28;20214;-70
2021/12/27 10:52:13;;;;;;;70.77;42.07;;;;;;;6.60;nan;-24001.19;5093775;28;20247;-70
2021/12/27 10:54:39;;;;;;;73.23;44.03;;;;;;;6.65;nan;-24002.72;5094074;28;20282;-71
2021/12/27 10:57:04;;;;;;;68.73;43.40;;;;;;;6.90;nan;-24009.69;5093398;28;20205;-69
2021/12/27 10:59:31;;;;;;;75.80;47.90;;;;;;;6.89;nan;-24009.25;5094117;28;20185;-69
2021/12/27 11:02:08;;;;;;;77.07;47.47;;;;;;;7.02;nan;-24013.09;5093480;28;20189;-70
2021/12/27 11:04:34;;;;;;;70.13;43.83;;;;;;;7.06;nan;-24014.22;5093847;28;20235;-68
2021/12/27 11:07:00;;;;;;;71.83;42.80;;;;;;;6.94;nan;-24010.69;5094173;28;20711;-69
2021/12/27 11:09:26;;;;;;;74.87;43.73;;;;;;;6.31;nan;-23993.09;5093208;28;20260;-68
2021/12/27 11:11:51;;;;;;;69.13;40.90;;;;;;;6.79;nan;-24006.44;5094017;28;20268;-68
2021/12/27 11:14:17;;;;;;;68.93;40.27;;;;;;;6.60;nan;-24001.19;5093595;28;20551;-68
2021/12/27 11:16:43;;;;;;;67.30;40.57;;;;;;;6.80;nan;-24006.84;5093819;28;20249;-69
2021/12/27 11:19:08;;;;;;;66.37;40.87;;;;;;;6.87;nan;-24008.84;5094222;28;20241;-68
2021/12/27 11:21:38;;;;;;;66.33;41.53;;;;;;;6.73;nan;-24004.72;5093876;28;20181;-69
2021/12/27 11:24:04;;;;;;;68.90;42.17;;;;;;;7.15;nan;-24016.50;5094344;28;20181;-68
2021/12/27 11:26:32;;;;;;;67.73;43.03;;;;;;;7.27;nan;-24020.03;5094164;28;20226;-70
2021/12/27 11:29:17;;;;;;;69.67;42.73;;;;;;;7.27;nan;-24019.91;5094837;28;20166;-69